sensor_id;sensor_type;location;lat;lon;timestamp;temperature;humidity
28767;DHT22;15921;52.034;20.650;2023-11-19T00:02:23;2.00;99.90
28767;DHT22;15921;52.034;20.650;2023-11-19T00:04:49;2.00;99.90
28767;DHT22;15921;52.034;20.650;2023-11-19T00:07:15;2.00;99.90
28767;DHT22;15921;52.034;20.650;2023-11-19T00:09:41;2.10;99.90
28767;DHT22;15921;52.034;20.650;2023-11-19T00:12:09;2.00;99.90
28767;DHT22;15921;52.034;20.650;2023-11-19T00:14:34;2.10;99.90
28767;DHT22;15921;52.034;20.650;2023-11-19T00:17:00;2.10;99.90
28767;DHT22;15921;52.034;20.650;2023-11-19T00:19:26;2.20;99.90
28767;DHT22;15921;52.034;20.650;2023-11-19T00:21:52;2.20;99.90
28767;DHT22;15921;52.034;20.650;2023-11-19T00:24:18;2.20;99.90
28767;DHT22;15921;52.034;20.650;2023-11-19T00:26:44;2.20;99.90
28767;DHT22;15921;52.034;20.650;2023-11-19T00:29:09;2.10;99.90
28767;DHT22;15921;52.034;20.650;2023-11-19T00:31:35;2.10;99.90
28767;DHT22;15921;52.034;20.650;2023-11-19T00:34:02;2.10;99.90
28767;DHT22;15921;52.034;20.650;2023-11-19T00:36:28;2.10;99.90
28767;DHT22;15921;52.034;20.650;2023-11-19T00:38:54;2.10;99.90
28767;DHT22;15921;52.034;20.650;2023-11-19T00:41:20;2.00;99.90
28767;DHT22;15921;52.034;20.650;2023-11-19T00:43:46;2.00;99.90
28767;DHT22;15921;52.034;20.650;2023-11-19T00:46:12;2.00;99.90
28767;DHT22;15921;52.034;20.650;2023-11-19T00:48:39;2.10;99.90
28767;DHT22;15921;52.034;20.650;2023-11-19T00:51:05;2.10;99.90
28767;DHT22;15921;52.034;20.650;2023-11-19T00:53:31;2.10;99.90
28767;DHT22;15921;52.034;20.650;2023-11-19T00:55:59;2.20;99.90
28767;DHT22;15921;52.034;20.650;2023-11-19T00:58:25;2.20;99.90
28767;DHT22;15921;52.034;20.650;2023-11-19T01:00:51;2.20;99.90
28767;DHT22;15921;52.034;20.650;2023-11-19T01:03:17;2.20;99.90
28767;DHT22;15921;52.034;20.650;2023-11-19T01:05:42;2.20;99.90
28767;DHT22;15921;52.034;20.650;2023-11-19T01:08:10;2.30;99.90
28767;DHT22;15921;52.034;20.650;2023-11-19T01:10:38;2.20;99.90
28767;DHT22;15921;52.034;20.650;2023-11-19T01:13:04;2.20;99.90
28767;DHT22;15921;52.034;20.650;2023-11-19T01:15:32;2.20;99.90
28767;DHT22;15921;52.034;20.650;2023-11-19T01:17:57;2.20;99.90
28767;DHT22;15921;52.034;20.650;2023-11-19T01:20:23;2.20;99.90
28767;DHT22;15921;52.034;20.650;2023-11-19T01:22:49;2.30;99.90
28767;DHT22;15921;52.034;20.650;2023-11-19T01:25:15;2.30;99.90
28767;DHT22;15921;52.034;20.650;2023-11-19T01:27:41;2.20;99.90
28767;DHT22;15921;52.034;20.650;2023-11-19T01:30:07;2.20;99.90
28767;DHT22;15921;52.034;20.650;2023-11-19T01:32:35;2.20;99.90
28767;DHT22;15921;52.034;20.650;2023-11-19T01:35:03;2.10;99.90
28767;DHT22;15921;52.034;20.650;2023-11-19T01:37:29;2.10;99.90
28767;DHT22;15921;52.034;20.650;2023-11-19T01:39:56;2.20;99.90
28767;DHT22;15921;52.034;20.650;2023-11-19T01:42:22;2.20;99.90
28767;DHT22;15921;52.034;20.650;2023-11-19T01:45:01;2.20;99.90
28767;DHT22;15921;52.034;20.650;2023-11-19T01:47:30;2.20;99.90
28767;DHT22;15921;52.034;20.650;2023-11-19T01:49:57;2.20;99.90
28767;DHT22;15921;52.034;20.650;2023-11-19T01:52:24;2.20;99.90
28767;DHT22;15921;52.034;20.650;2023-11-19T01:54:52;2.20;99.90
28767;DHT22;15921;52.034;20.650;2023-11-19T01:57:18;2.10;99.90
28767;DHT22;15921;52.034;20.650;2023-11-19T01:59:45;2.10;99.90
28767;DHT22;15921;52.034;20.650;2023-11-19T02:02:11;2.10;99.90
28767;DHT22;15921;52.034;20.650;2023-11-19T02:04:38;2.10;99.90
28767;DHT22;15921;52.034;20.650;2023-11-19T02:07:04;2.10;99.90
28767;DHT22;15921;52.034;20.650;2023-11-19T02:09:30;2.10;99.90
28767;DHT22;15921;52.034;20.650;2023-11-19T02:11:55;2.10;99.90
28767;DHT22;15921;52.034;20.650;2023-11-19T02:14:25;2.10;99.90
28767;DHT22;15921;52.034;20.650;2023-11-19T02:16:52;2.10;99.90
28767;DHT22;15921;52.034;20.650;2023-11-19T02:19:21;2.10;99.90
28767;DHT22;15921;52.034;20.650;2023-11-19T02:21:46;2.10;99.90
28767;DHT22;15921;52.034;20.650;2023-11-19T02:24:14;2.10;99.90
28767;DHT22;15921;52.034;20.650;2023-11-19T02:27:10;2.10;99.90
28767;DHT22;15921;52.034;20.650;2023-11-19T02:29:39;2.20;99.90
28767;DHT22;15921;52.034;20.650;2023-11-19T02:32:05;2.10;99.90
28767;DHT22;15921;52.034;20.650;2023-11-19T02:34:34;2.20;99.90
28767;DHT22;15921;52.034;20.650;2023-11-19T02:37:00;2.20;99.90
28767;DHT22;15921;52.034;20.650;2023-11-19T02:39:26;2.20;99.90
28767;DHT22;15921;52.034;20.650;2023-11-19T02:41:52;2.20;99.90
28767;DHT22;15921;52.034;20.650;2023-11-19T02:44:18;2.20;99.90
28767;DHT22;15921;52.034;20.650;2023-11-19T02:46:44;2.20;99.90
28767;DHT22;15921;52.034;20.650;2023-11-19T02:49:10;2.20;99.90
28767;DHT22;15921;52.034;20.650;2023-11-19T02:51:35;2.20;99.90
28767;DHT22;15921;52.034;20.650;2023-11-19T02:54:02;2.20;99.90
28767;DHT22;15921;52.034;20.650;2023-11-19T02:56:29;2.10;99.90
28767;DHT22;15921;52.034;20.650;2023-11-19T02:58:59;2.10;99.90
28767;DHT22;15921;52.034;20.650;2023-11-19T03:01:28;2.20;99.90
28767;DHT22;15921;52.034;20.650;2023-11-19T03:04:00;2.20;99.90
28767;DHT22;15921;52.034;20.650;2023-11-19T03:06:27;2.20;99.90
28767;DHT22;15921;52.034;20.650;2023-11-19T03:08:54;2.20;99.90
28767;DHT22;15921;52.034;20.650;2023-11-19T03:11:20;2.20;99.90
28767;DHT22;15921;52.034;20.650;2023-11-19T03:13:46;2.20;99.90
28767;DHT22;15921;52.034;20.650;2023-11-19T03:16:12;2.20;99.90
28767;DHT22;15921;52.034;20.650;2023-11-19T03:18:38;2.20;99.90
28767;DHT22;15921;52.034;20.650;2023-11-19T03:21:06;2.20;99.90
28767;DHT22;15921;52.034;20.650;2023-11-19T03:23:33;2.20;99.90
28767;DHT22;15921;52.034;20.650;2023-11-19T03:25:59;2.10;99.90
28767;DHT22;15921;52.034;20.650;2023-11-19T03:28:29;2.20;99.90
28767;DHT22;15921;52.034;20.650;2023-11-19T03:30:54;2.20;99.90
28767;DHT22;15921;52.034;20.650;2023-11-19T03:33:20;2.20;99.90
28767;DHT22;15921;52.034;20.650;2023-11-19T03:35:46;2.20;99.90
28767;DHT22;15921;52.034;20.650;2023-11-19T03:38:12;2.20;99.90
28767;DHT22;15921;52.034;20.650;2023-11-19T03:40:38;2.20;99.90
28767;DHT22;15921;52.034;20.650;2023-11-19T03:43:04;2.20;99.90
28767;DHT22;15921;52.034;20.650;2023-11-19T03:45:30;2.10;99.90
28767;DHT22;15921;52.034;20.650;2023-11-19T03:47:56;2.10;99.90
28767;DHT22;15921;52.034;20.650;2023-11-19T03:50:22;2.10;99.90
28767;DHT22;15921;52.034;20.650;2023-11-19T03:52:48;2.10;99.90
28767;DHT22;15921;52.034;20.650;2023-11-19T03:55:13;2.10;99.90
28767;DHT22;15921;52.034;20.650;2023-11-19T03:57:39;2.10;99.90
28767;DHT22;15921;52.034;20.650;2023-11-19T04:00:06;2.10;99.90
28767;DHT22;15921;52.034;20.650;2023-11-19T04:02:36;2.20;99.90
28767;DHT22;15921;52.034;20.650;2023-11-19T04:05:03;2.20;99.90
28767;DHT22;15921;52.034;20.650;2023-11-19T04:07:30;2.20;99.90
28767;DHT22;15921;52.034;20.650;2023-11-19T04:09:57;2.20;99.90
28767;DHT22;15921;52.034;20.650;2023-11-19T04:12:22;2.20;99.90
28767;DHT22;15921;52.034;20.650;2023-11-19T04:14:48;2.20;99.90
28767;DHT22;15921;52.034;20.650;2023-11-19T04:17:14;2.10;99.90
28767;DHT22;15921;52.034;20.650;2023-11-19T04:19:39;2.10;99.90
28767;DHT22;15921;52.034;20.650;2023-11-19T04:22:07;2.10;99.90
28767;DHT22;15921;52.034;20.650;2023-11-19T04:24:34;2.10;99.90
28767;DHT22;15921;52.034;20.650;2023-11-19T04:27:00;2.10;99.90
28767;DHT22;15921;52.034;20.650;2023-11-19T04:29:26;2.10;99.90
28767;DHT22;15921;52.034;20.650;2023-11-19T04:31:51;2.10;99.90
28767;DHT22;15921;52.034;20.650;2023-11-19T04:34:17;2.10;99.90
28767;DHT22;15921;52.034;20.650;2023-11-19T04:36:42;2.10;99.90
28767;DHT22;15921;52.034;20.650;2023-11-19T04:39:09;2.10;99.90
28767;DHT22;15921;52.034;20.650;2023-11-19T04:41:48;2.00;99.90
28767;DHT22;15921;52.034;20.650;2023-11-19T04:44:15;2.00;99.90
28767;DHT22;15921;52.034;20.650;2023-11-19T04:46:41;2.00;99.90
28767;DHT22;15921;52.034;20.650;2023-11-19T04:49:09;2.00;99.90
28767;DHT22;15921;52.034;20.650;2023-11-19T04:51:43;2.00;99.90
28767;DHT22;15921;52.034;20.650;2023-11-19T04:54:10;2.00;99.90
28767;DHT22;15921;52.034;20.650;2023-11-19T04:56:36;2.00;99.90
28767;DHT22;15921;52.034;20.650;2023-11-19T04:59:05;2.00;99.90
28767;DHT22;15921;52.034;20.650;2023-11-19T05:01:32;2.00;99.90
28767;DHT22;15921;52.034;20.650;2023-11-19T05:03:58;2.10;99.90
28767;DHT22;15921;52.034;20.650;2023-11-19T05:06:31;2.00;99.90
28767;DHT22;15921;52.034;20.650;2023-11-19T05:08:58;2.00;99.90
28767;DHT22;15921;52.034;20.650;2023-11-19T05:11:24;2.10;99.90
28767;DHT22;15921;52.034;20.650;2023-11-19T05:13:49;2.00;99.90
28767;DHT22;15921;52.034;20.650;2023-11-19T05:16:16;2.00;99.90
28767;DHT22;15921;52.034;20.650;2023-11-19T05:18:43;1.90;99.90
28767;DHT22;15921;52.034;20.650;2023-11-19T05:21:08;1.90;99.90
28767;DHT22;15921;52.034;20.650;2023-11-19T05:23:34;1.90;99.90
28767;DHT22;15921;52.034;20.650;2023-11-19T05:26:01;2.00;99.90
28767;DHT22;15921;52.034;20.650;2023-11-19T05:28:27;2.00;99.90
28767;DHT22;15921;52.034;20.650;2023-11-19T05:30:54;2.00;99.90
28767;DHT22;15921;52.034;20.650;2023-11-19T05:33:19;2.00;99.90
28767;DHT22;15921;52.034;20.650;2023-11-19T05:35:45;2.00;99.90
28767;DHT22;15921;52.034;20.650;2023-11-19T05:38:11;1.90;99.90
28767;DHT22;15921;52.034;20.650;2023-11-19T05:40:36;1.80;99.90
28767;DHT22;15921;52.034;20.650;2023-11-19T05:43:04;1.80;99.90
28767;DHT22;15921;52.034;20.650;2023-11-19T05:45:30;1.80;99.90
28767;DHT22;15921;52.034;20.650;2023-11-19T05:47:57;1.90;99.90
28767;DHT22;15921;52.034;20.650;2023-11-19T05:50:22;1.90;99.90
28767;DHT22;15921;52.034;20.650;2023-11-19T05:52:48;1.80;99.90
28767;DHT22;15921;52.034;20.650;2023-11-19T05:55:14;1.80;99.90
28767;DHT22;15921;52.034;20.650;2023-11-19T05:57:40;1.80;99.90
28767;DHT22;15921;52.034;20.650;2023-11-19T06:00:06;1.80;99.90
28767;DHT22;15921;52.034;20.650;2023-11-19T06:02:34;1.80;99.90
28767;DHT22;15921;52.034;20.650;2023-11-19T06:05:00;1.80;99.90
28767;DHT22;15921;52.034;20.650;2023-11-19T06:07:26;1.80;99.90
28767;DHT22;15921;52.034;20.650;2023-11-19T06:09:52;1.80;99.90
28767;DHT22;15921;52.034;20.650;2023-11-19T06:12:18;1.90;99.90
28767;DHT22;15921;52.034;20.650;2023-11-19T06:14:43;1.80;99.90
28767;DHT22;15921;52.034;20.650;2023-11-19T06:17:09;1.90;99.90
28767;DHT22;15921;52.034;20.650;2023-11-19T06:19:36;1.90;99.90
28767;DHT22;15921;52.034;20.650;2023-11-19T06:22:03;2.00;99.90
28767;DHT22;15921;52.034;20.650;2023-11-19T06:24:29;2.00;99.90
28767;DHT22;15921;52.034;20.650;2023-11-19T06:26:55;2.00;99.90
28767;DHT22;15921;52.034;20.650;2023-11-19T06:29:21;2.00;99.90
28767;DHT22;15921;52.034;20.650;2023-11-19T06:31:46;2.00;99.90
28767;DHT22;15921;52.034;20.650;2023-11-19T06:34:15;2.00;99.90
28767;DHT22;15921;52.034;20.650;2023-11-19T06:36:41;2.00;99.90
28767;DHT22;15921;52.034;20.650;2023-11-19T06:39:09;2.00;99.90
28767;DHT22;15921;52.034;20.650;2023-11-19T06:41:34;2.00;99.90
28767;DHT22;15921;52.034;20.650;2023-11-19T06:44:00;2.00;99.90
28767;DHT22;15921;52.034;20.650;2023-11-19T06:46:26;1.90;99.90
28767;DHT22;15921;52.034;20.650;2023-11-19T06:48:51;1.90;99.90
28767;DHT22;15921;52.034;20.650;2023-11-19T06:51:17;2.00;99.90
28767;DHT22;15921;52.034;20.650;2023-11-19T06:53:43;2.00;99.90
28767;DHT22;15921;52.034;20.650;2023-11-19T06:56:23;2.00;99.90
28767;DHT22;15921;52.034;20.650;2023-11-19T06:58:49;2.00;99.90
28767;DHT22;15921;52.034;20.650;2023-11-19T07:01:16;2.10;99.90
28767;DHT22;15921;52.034;20.650;2023-11-19T07:03:47;2.10;99.90
28767;DHT22;15921;52.034;20.650;2023-11-19T07:06:13;2.10;99.90
28767;DHT22;15921;52.034;20.650;2023-11-19T07:08:42;2.20;99.90
28767;DHT22;15921;52.034;20.650;2023-11-19T07:11:11;2.20;99.90
28767;DHT22;15921;52.034;20.650;2023-11-19T07:13:38;2.10;99.90
28767;DHT22;15921;52.034;20.650;2023-11-19T07:16:04;2.10;99.90
28767;DHT22;15921;52.034;20.650;2023-11-19T07:18:29;2.10;99.90
28767;DHT22;15921;52.034;20.650;2023-11-19T07:20:55;2.10;99.90
28767;DHT22;15921;52.034;20.650;2023-11-19T07:23:21;2.10;99.90
28767;DHT22;15921;52.034;20.650;2023-11-19T07:25:47;2.10;99.90
28767;DHT22;15921;52.034;20.650;2023-11-19T07:28:13;2.20;99.90
28767;DHT22;15921;52.034;20.650;2023-11-19T07:30:39;2.30;99.90
28767;DHT22;15921;52.034;20.650;2023-11-19T07:33:05;2.40;99.90
28767;DHT22;15921;52.034;20.650;2023-11-19T07:35:32;2.50;99.90
28767;DHT22;15921;52.034;20.650;2023-11-19T07:37:57;2.50;99.90
28767;DHT22;15921;52.034;20.650;2023-11-19T07:40:24;2.60;99.90
28767;DHT22;15921;52.034;20.650;2023-11-19T07:42:49;2.60;99.90
28767;DHT22;15921;52.034;20.650;2023-11-19T07:45:16;2.60;99.90
28767;DHT22;15921;52.034;20.650;2023-11-19T07:47:42;2.60;99.90
28767;DHT22;15921;52.034;20.650;2023-11-19T07:50:10;2.60;99.90
28767;DHT22;15921;52.034;20.650;2023-11-19T07:52:36;2.70;99.90
28767;DHT22;15921;52.034;20.650;2023-11-19T07:55:03;2.70;99.90
28767;DHT22;15921;52.034;20.650;2023-11-19T07:57:28;2.80;99.90
28767;DHT22;15921;52.034;20.650;2023-11-19T07:59:57;2.90;99.90
28767;DHT22;15921;52.034;20.650;2023-11-19T08:02:23;2.90;99.90
28767;DHT22;15921;52.034;20.650;2023-11-19T08:04:49;2.90;99.90
28767;DHT22;15921;52.034;20.650;2023-11-19T08:07:23;2.80;99.90
28767;DHT22;15921;52.034;20.650;2023-11-19T08:09:49;2.90;99.90
28767;DHT22;15921;52.034;20.650;2023-11-19T08:12:14;3.00;99.90
28767;DHT22;15921;52.034;20.650;2023-11-19T08:14:42;2.90;99.90
28767;DHT22;15921;52.034;20.650;2023-11-19T08:17:09;2.90;99.90
28767;DHT22;15921;52.034;20.650;2023-11-19T08:19:35;3.00;99.90
28767;DHT22;15921;52.034;20.650;2023-11-19T08:22:00;3.20;99.90
28767;DHT22;15921;52.034;20.650;2023-11-19T08:24:26;3.30;99.90
28767;DHT22;15921;52.034;20.650;2023-11-19T08:26:52;3.40;99.90
28767;DHT22;15921;52.034;20.650;2023-11-19T08:29:17;3.40;99.90
28767;DHT22;15921;52.034;20.650;2023-11-19T08:31:43;3.50;99.90
28767;DHT22;15921;52.034;20.650;2023-11-19T08:34:09;3.60;99.90
28767;DHT22;15921;52.034;20.650;2023-11-19T08:36:35;3.70;99.90
28767;DHT22;15921;52.034;20.650;2023-11-19T08:39:01;3.70;99.90
28767;DHT22;15921;52.034;20.650;2023-11-19T08:41:26;3.70;99.90
28767;DHT22;15921;52.034;20.650;2023-11-19T08:43:52;3.70;99.90
28767;DHT22;15921;52.034;20.650;2023-11-19T08:46:18;3.80;99.90
28767;DHT22;15921;52.034;20.650;2023-11-19T08:48:44;3.70;99.90
28767;DHT22;15921;52.034;20.650;2023-11-19T08:51:10;3.70;99.90
28767;DHT22;15921;52.034;20.650;2023-11-19T08:53:36;3.70;99.90
28767;DHT22;15921;52.034;20.650;2023-11-19T08:56:02;3.70;99.90
28767;DHT22;15921;52.034;20.650;2023-11-19T08:58:28;3.70;99.90
28767;DHT22;15921;52.034;20.650;2023-11-19T09:00:54;3.70;99.90
28767;DHT22;15921;52.034;20.650;2023-11-19T09:03:20;3.80;99.90
28767;DHT22;15921;52.034;20.650;2023-11-19T09:05:46;3.70;99.90
28767;DHT22;15921;52.034;20.650;2023-11-19T09:08:12;3.60;99.90
28767;DHT22;15921;52.034;20.650;2023-11-19T09:10:37;3.50;99.90
28767;DHT22;15921;52.034;20.650;2023-11-19T09:13:03;3.40;99.90
28767;DHT22;15921;52.034;20.650;2023-11-19T09:15:29;3.30;99.90
28767;DHT22;15921;52.034;20.650;2023-11-19T09:17:55;3.20;99.90
28767;DHT22;15921;52.034;20.650;2023-11-19T09:20:21;3.20;99.90
28767;DHT22;15921;52.034;20.650;2023-11-19T09:22:47;3.20;99.90
28767;DHT22;15921;52.034;20.650;2023-11-19T09:25:13;3.20;99.90
28767;DHT22;15921;52.034;20.650;2023-11-19T09:27:43;3.20;99.90
28767;DHT22;15921;52.034;20.650;2023-11-19T09:30:09;3.20;99.90
28767;DHT22;15921;52.034;20.650;2023-11-19T09:32:35;3.10;99.90
28767;DHT22;15921;52.034;20.650;2023-11-19T09:35:01;3.10;99.90
28767;DHT22;15921;52.034;20.650;2023-11-19T09:37:28;3.10;99.90
28767;DHT22;15921;52.034;20.650;2023-11-19T09:39:53;3.20;99.90
28767;DHT22;15921;52.034;20.650;2023-11-19T09:42:19;3.20;99.90
28767;DHT22;15921;52.034;20.650;2023-11-19T09:44:47;3.20;99.90
28767;DHT22;15921;52.034;20.650;2023-11-19T09:47:14;3.10;99.90
28767;DHT22;15921;52.034;20.650;2023-11-19T09:49:40;3.10;99.90
28767;DHT22;15921;52.034;20.650;2023-11-19T09:52:06;3.00;99.90
28767;DHT22;15921;52.034;20.650;2023-11-19T09:54:32;3.10;99.90
28767;DHT22;15921;52.034;20.650;2023-11-19T09:56:58;3.10;99.90
28767;DHT22;15921;52.034;20.650;2023-11-19T09:59:29;3.00;99.90
28767;DHT22;15921;52.034;20.650;2023-11-19T10:01:56;2.90;99.90
28767;DHT22;15921;52.034;20.650;2023-11-19T10:04:22;2.90;99.90
28767;DHT22;15921;52.034;20.650;2023-11-19T10:06:50;2.90;99.90
28767;DHT22;15921;52.034;20.650;2023-11-19T10:09:16;2.90;99.90
28767;DHT22;15921;52.034;20.650;2023-11-19T10:11:42;2.80;99.90
28767;DHT22;15921;52.034;20.650;2023-11-19T10:14:08;2.80;99.90
28767;DHT22;15921;52.034;20.650;2023-11-19T10:16:35;2.80;99.90
28767;DHT22;15921;52.034;20.650;2023-11-19T10:19:01;2.90;99.90
28767;DHT22;15921;52.034;20.650;2023-11-19T10:21:27;3.00;99.90
28767;DHT22;15921;52.034;20.650;2023-11-19T10:23:56;3.00;99.90
28767;DHT22;15921;52.034;20.650;2023-11-19T10:26:25;3.00;99.90
28767;DHT22;15921;52.034;20.650;2023-11-19T10:28:51;2.90;99.90
28767;DHT22;15921;52.034;20.650;2023-11-19T10:31:18;2.80;99.90
28767;DHT22;15921;52.034;20.650;2023-11-19T10:33:45;2.80;99.90
28767;DHT22;15921;52.034;20.650;2023-11-19T10:36:14;2.90;99.90
28767;DHT22;15921;52.034;20.650;2023-11-19T10:38:40;3.10;99.90
28767;DHT22;15921;52.034;20.650;2023-11-19T10:41:06;3.30;99.90
28767;DHT22;15921;52.034;20.650;2023-11-19T10:43:42;3.50;99.90
28767;DHT22;15921;52.034;20.650;2023-11-19T10:46:11;3.80;99.90
28767;DHT22;15921;52.034;20.650;2023-11-19T10:48:37;4.00;99.90
28767;DHT22;15921;52.034;20.650;2023-11-19T10:51:07;4.10;99.90
28767;DHT22;15921;52.034;20.650;2023-11-19T10:53:37;4.30;99.90
28767;DHT22;15921;52.034;20.650;2023-11-19T10:56:10;4.30;99.90
28767;DHT22;15921;52.034;20.650;2023-11-19T10:58:36;4.20;99.90
28767;DHT22;15921;52.034;20.650;2023-11-19T11:01:11;4.20;99.90
28767;DHT22;15921;52.034;20.650;2023-11-19T11:03:43;4.10;99.90
28767;DHT22;15921;52.034;20.650;2023-11-19T11:06:11;4.00;99.90
28767;DHT22;15921;52.034;20.650;2023-11-19T11:08:39;3.90;99.90
28767;DHT22;15921;52.034;20.650;2023-11-19T11:11:05;3.80;99.90
28767;DHT22;15921;52.034;20.650;2023-11-19T11:13:32;3.80;99.90
28767;DHT22;15921;52.034;20.650;2023-11-19T11:16:00;3.70;99.90
28767;DHT22;15921;52.034;20.650;2023-11-19T11:18:26;3.80;99.90
28767;DHT22;15921;52.034;20.650;2023-11-19T11:21:02;3.80;99.90
28767;DHT22;15921;52.034;20.650;2023-11-19T11:32:33;3.50;99.90
28767;DHT22;15921;52.034;20.650;2023-11-19T11:37:46;3.50;99.90
28767;DHT22;15921;52.034;20.650;2023-11-19T11:40:16;3.50;99.90
28767;DHT22;15921;52.034;20.650;2023-11-19T11:42:46;3.60;99.90
28767;DHT22;15921;52.034;20.650;2023-11-19T11:45:14;3.60;99.90
28767;DHT22;15921;52.034;20.650;2023-11-19T11:55:52;3.60;99.90
28767;DHT22;15921;52.034;20.650;2023-11-19T11:58:25;3.60;99.90
28767;DHT22;15921;52.034;20.650;2023-11-19T12:00:51;3.60;99.90
28767;DHT22;15921;52.034;20.650;2023-11-19T12:03:20;3.50;99.90
28767;DHT22;15921;52.034;20.650;2023-11-19T12:05:48;3.50;99.90
28767;DHT22;15921;52.034;20.650;2023-11-19T12:08:14;3.40;99.90
28767;DHT22;15921;52.034;20.650;2023-11-19T12:11:00;3.40;99.90
28767;DHT22;15921;52.034;20.650;2023-11-19T12:13:47;3.40;99.90
28767;DHT22;15921;52.034;20.650;2023-11-19T12:16:13;3.30;99.90
28767;DHT22;15921;52.034;20.650;2023-11-19T12:18:40;3.20;99.90
28767;DHT22;15921;52.034;20.650;2023-11-19T12:21:06;3.10;99.90
28767;DHT22;15921;52.034;20.650;2023-11-19T12:23:35;3.10;99.90
28767;DHT22;15921;52.034;20.650;2023-11-19T12:26:00;3.10;99.90
28767;DHT22;15921;52.034;20.650;2023-11-19T12:28:26;3.10;99.90
28767;DHT22;15921;52.034;20.650;2023-11-19T12:30:53;3.00;99.90
28767;DHT22;15921;52.034;20.650;2023-11-19T12:33:19;3.10;99.90
28767;DHT22;15921;52.034;20.650;2023-11-19T12:35:48;3.10;99.90
28767;DHT22;15921;52.034;20.650;2023-11-19T12:38:24;3.10;99.90
28767;DHT22;15921;52.034;20.650;2023-11-19T12:41:05;3.10;99.90
28767;DHT22;15921;52.034;20.650;2023-11-19T12:43:31;3.10;99.90
28767;DHT22;15921;52.034;20.650;2023-11-19T12:45:57;3.00;99.90
28767;DHT22;15921;52.034;20.650;2023-11-19T12:48:23;3.00;99.90
28767;DHT22;15921;52.034;20.650;2023-11-19T12:50:58;2.90;99.90
28767;DHT22;15921;52.034;20.650;2023-11-19T12:53:27;2.90;99.90
28767;DHT22;15921;52.034;20.650;2023-11-19T12:55:54;2.90;99.90
28767;DHT22;15921;52.034;20.650;2023-11-19T12:58:31;3.00;99.90
28767;DHT22;15921;52.034;20.650;2023-11-19T13:01:05;3.00;99.90
28767;DHT22;15921;52.034;20.650;2023-11-19T13:03:36;3.00;99.90
28767;DHT22;15921;52.034;20.650;2023-11-19T13:06:13;3.00;99.90
28767;DHT22;15921;52.034;20.650;2023-11-19T13:08:43;3.00;99.90
28767;DHT22;15921;52.034;20.650;2023-11-19T13:11:10;2.90;99.90
28767;DHT22;15921;52.034;20.650;2023-11-19T13:16:21;2.80;99.90
28767;DHT22;15921;52.034;20.650;2023-11-19T13:18:47;2.80;99.90
28767;DHT22;15921;52.034;20.650;2023-11-19T13:21:13;2.80;99.90
28767;DHT22;15921;52.034;20.650;2023-11-19T13:23:38;2.80;99.90
28767;DHT22;15921;52.034;20.650;2023-11-19T13:26:04;2.90;99.90
28767;DHT22;15921;52.034;20.650;2023-11-19T13:28:31;2.90;99.90
28767;DHT22;15921;52.034;20.650;2023-11-19T13:30:56;2.80;99.90
28767;DHT22;15921;52.034;20.650;2023-11-19T13:33:23;2.80;99.90
28767;DHT22;15921;52.034;20.650;2023-11-19T13:35:49;2.70;99.90
28767;DHT22;15921;52.034;20.650;2023-11-19T13:38:14;2.70;99.90
28767;DHT22;15921;52.034;20.650;2023-11-19T13:40:40;2.60;99.90
28767;DHT22;15921;52.034;20.650;2023-11-19T13:43:06;2.60;99.90
28767;DHT22;15921;52.034;20.650;2023-11-19T13:45:33;2.60;99.90
28767;DHT22;15921;52.034;20.650;2023-11-19T13:47:58;2.50;99.90
28767;DHT22;15921;52.034;20.650;2023-11-19T13:50:24;2.50;99.90
28767;DHT22;15921;52.034;20.650;2023-11-19T13:52:50;2.60;99.90
28767;DHT22;15921;52.034;20.650;2023-11-19T13:55:16;2.60;99.90
28767;DHT22;15921;52.034;20.650;2023-11-19T13:57:42;2.60;99.90
28767;DHT22;15921;52.034;20.650;2023-11-19T14:00:09;2.70;99.90
28767;DHT22;15921;52.034;20.650;2023-11-19T14:02:42;2.70;99.90
28767;DHT22;15921;52.034;20.650;2023-11-19T14:05:11;2.70;99.90
28767;DHT22;15921;52.034;20.650;2023-11-19T14:07:38;2.80;99.90
28767;DHT22;15921;52.034;20.650;2023-11-19T14:10:04;2.80;99.90
28767;DHT22;15921;52.034;20.650;2023-11-19T14:12:31;2.80;99.90
28767;DHT22;15921;52.034;20.650;2023-11-19T14:14:58;2.70;99.90
28767;DHT22;15921;52.034;20.650;2023-11-19T14:17:23;2.70;99.90
28767;DHT22;15921;52.034;20.650;2023-11-19T14:19:50;2.60;99.90
28767;DHT22;15921;52.034;20.650;2023-11-19T14:22:16;2.60;99.90
28767;DHT22;15921;52.034;20.650;2023-11-19T14:24:42;2.50;99.90
28767;DHT22;15921;52.034;20.650;2023-11-19T14:27:09;2.50;99.90
28767;DHT22;15921;52.034;20.650;2023-11-19T14:29:35;2.40;99.90
28767;DHT22;15921;52.034;20.650;2023-11-19T14:32:01;2.40;99.90
28767;DHT22;15921;52.034;20.650;2023-11-19T14:34:31;2.40;99.90
28767;DHT22;15921;52.034;20.650;2023-11-19T14:36:58;2.50;99.90
28767;DHT22;15921;52.034;20.650;2023-11-19T14:39:24;2.40;99.90
28767;DHT22;15921;52.034;20.650;2023-11-19T14:41:50;2.40;99.90
28767;DHT22;15921;52.034;20.650;2023-11-19T14:44:16;2.40;99.90
28767;DHT22;15921;52.034;20.650;2023-11-19T14:46:42;2.30;99.90
28767;DHT22;15921;52.034;20.650;2023-11-19T14:49:07;2.30;99.90
28767;DHT22;15921;52.034;20.650;2023-11-19T14:51:39;2.30;99.90
28767;DHT22;15921;52.034;20.650;2023-11-19T14:54:05;2.30;99.90
28767;DHT22;15921;52.034;20.650;2023-11-19T14:56:31;2.30;99.90
28767;DHT22;15921;52.034;20.650;2023-11-19T14:58:57;2.30;99.90
28767;DHT22;15921;52.034;20.650;2023-11-19T15:01:22;2.30;99.90
28767;DHT22;15921;52.034;20.650;2023-11-19T15:03:49;2.30;99.90
28767;DHT22;15921;52.034;20.650;2023-11-19T15:06:15;2.20;99.90
28767;DHT22;15921;52.034;20.650;2023-11-19T15:08:41;2.20;99.90
28767;DHT22;15921;52.034;20.650;2023-11-19T15:11:08;2.10;99.90
28767;DHT22;15921;52.034;20.650;2023-11-19T15:13:35;2.10;99.90
28767;DHT22;15921;52.034;20.650;2023-11-19T15:16:03;2.10;99.90
28767;DHT22;15921;52.034;20.650;2023-11-19T15:18:31;2.10;99.90
28767;DHT22;15921;52.034;20.650;2023-11-19T15:20:57;2.10;99.90
28767;DHT22;15921;52.034;20.650;2023-11-19T15:23:23;2.10;99.90
28767;DHT22;15921;52.034;20.650;2023-11-19T15:25:48;2.10;99.90
28767;DHT22;15921;52.034;20.650;2023-11-19T15:28:15;2.10;99.90
28767;DHT22;15921;52.034;20.650;2023-11-19T15:30:40;2.20;99.90
28767;DHT22;15921;52.034;20.650;2023-11-19T15:33:06;2.20;99.90
28767;DHT22;15921;52.034;20.650;2023-11-19T15:35:34;2.10;99.90
28767;DHT22;15921;52.034;20.650;2023-11-19T15:38:00;2.20;99.90
28767;DHT22;15921;52.034;20.650;2023-11-19T15:40:25;2.10;99.90
28767;DHT22;15921;52.034;20.650;2023-11-19T15:42:52;2.10;99.90
28767;DHT22;15921;52.034;20.650;2023-11-19T15:45:20;2.20;99.90
28767;DHT22;15921;52.034;20.650;2023-11-19T15:47:46;2.20;99.90
28767;DHT22;15921;52.034;20.650;2023-11-19T15:50:11;2.20;99.90
28767;DHT22;15921;52.034;20.650;2023-11-19T15:52:37;2.10;99.90